Time,TemperatureF,DewpointF,PressureIn,WindDirection,WindDirectionDegrees,WindSpeedMPH,WindSpeedGustMPH,Humidity,HourlyPrecipIn,Conditions,Clouds,dailyrainin,SoftwareType,DateUTC
2013-09-13 00:01:00,70.7,67.6,29.91,South,180,2.7,3.1,90,0.00,,CLR,0.00,VWS V14.01,2013-09-13 04:01:00,
2013-09-13 00:02:00,70.7,67.3,29.91,South,180,2.2,4.0,89,0.00,,CLR,0.00,VWS V14.01,2013-09-13 04:02:00,
2013-09-13 00:03:00,70.7,67.3,29.88,South,180,2.2,3.1,89,0.00,,CLR,0.00,VWS V14.01,2013-09-13 04:03:00,
2013-09-13 00:08:00,70.7,67.0,29.88,South,180,2.7,3.1,88,0.00,,CLR,0.00,VWS V14.01,2013-09-13 04:08:00,
2013-09-13 00:13:00,70.9,66.5,29.88,South,180,3.6,3.6,86,0.00,,CLR,0.00,VWS V14.01,2013-09-13 04:13:00,
2013-09-13 00:18:00,71.1,66.0,29.88,South,180,2.7,3.1,84,0.00,,CLR,0.00,VWS V14.01,2013-09-13 04:18:00,
2013-09-13 00:23:00,71.1,65.3,29.88,South,180,2.7,2.7,82,0.00,,BKN110,0.00,VWS V14.01,2013-09-13 04:23:00,
2013-09-13 00:28:00,71.2,65.1,29.88,South,180,2.7,2.7,81,0.00,,BKN110,0.00,VWS V14.01,2013-09-13 04:28:00,
2013-09-13 00:33:00,71.4,64.6,29.88,South,180,2.2,2.7,79,0.00,,BKN110,0.00,VWS V14.01,2013-09-13 04:33:00,
2013-09-13 00:38:00,71.6,64.4,29.88,South,180,0.0,0.0,78,0.00,,BKN110,0.00,VWS V14.01,2013-09-13 04:38:00,
2013-09-13 00:43:00,71.6,64.0,29.88,South,180,0.0,2.2,77,0.00,,SCT120,0.00,VWS V14.01,2013-09-13 04:43:00,
2013-09-13 00:48:00,71.6,64.0,29.88,South,180,2.2,2.7,77,0.00,,SCT120,0.00,VWS V14.01,2013-09-13 04:48:00,
2013-09-13 00:53:00,71.8,63.8,29.88,South,180,0.0,2.2,76,0.00,,SCT120,0.00,VWS V14.01,2013-09-13 04:53:00,
2013-09-13 00:58:00,71.6,64.0,29.88,South,180,0.0,0.0,77,0.00,,SCT120,0.00,VWS V14.01,2013-09-13 04:58:00,
2013-09-13 01:03:00,71.2,64.0,29.88,South,180,0.0,0.0,78,0.00,,CLR,0.00,VWS V14.01,2013-09-13 05:03:00,
2013-09-13 01:08:00,71.1,64.2,29.88,South,180,0.0,0.0,79,0.00,,CLR,0.00,VWS V14.01,2013-09-13 05:08:00,
2013-09-13 01:13:00,70.9,63.7,29.88,South,180,0.0,0.0,78,0.00,,CLR,0.00,VWS V14.01,2013-09-13 05:13:00,
2013-09-13 01:18:00,70.5,64.4,29.88,South,180,2.2,2.7,81,0.00,,CLR,0.00,VWS V14.01,2013-09-13 05:18:00,
2013-09-13 01:23:00,70.3,64.9,29.88,South,180,0.0,0.0,83,0.00,,CLR,0.00,VWS V14.01,2013-09-13 05:23:00,
2013-09-13 01:28:00,70.2,65.1,29.88,South,180,0.0,0.0,84,0.00,,CLR,0.00,VWS V14.01,2013-09-13 05:28:00,
2013-09-13 01:33:00,69.8,65.1,29.88,South,180,0.0,0.0,85,0.00,,CLR,0.00,VWS V14.01,2013-09-13 05:33:00,
2013-09-13 01:38:00,69.4,65.1,29.88,South,180,0.0,0.0,86,0.00,,CLR,0.00,VWS V14.01,2013-09-13 05:38:00,
2013-09-13 01:43:00,69.4,65.1,29.88,South,180,0.0,0.0,86,0.00,,CLR,0.00,VWS V14.01,2013-09-13 05:43:00,
2013-09-13 01:48:00,69.1,65.4,29.85,South,180,0.0,0.0,88,0.00,,CLR,0.00,VWS V14.01,2013-09-13 05:48:00,
2013-09-13 01:53:00,69.1,65.7,29.85,South,180,0.0,0.0,89,0.00,,CLR,0.00,VWS V14.01,2013-09-13 05:53:00,
2013-09-13 01:58:00,68.9,65.5,29.85,South,180,0.0,0.0,89,0.00,,CLR,0.00,VWS V14.01,2013-09-13 05:58:00,
2013-09-13 02:03:00,68.9,65.5,29.85,South,180,0.0,2.2,89,0.00,,CLR,0.00,VWS V14.01,2013-09-13 06:03:00,
2013-09-13 02:08:00,68.9,65.5,29.85,South,180,0.0,0.0,89,0.00,,CLR,0.00,VWS V14.01,2013-09-13 06:08:00,
2013-09-13 02:13:00,68.9,65.8,29.85,South,180,0.0,2.2,90,0.00,,CLR,0.00,VWS V14.01,2013-09-13 06:13:00,
2013-09-13 02:18:00,68.9,65.8,29.85,South,180,0.0,0.0,90,0.00,,CLR,0.00,VWS V14.01,2013-09-13 06:18:00,
2013-09-13 02:23:00,68.7,65.7,29.85,South,180,0.0,0.0,90,0.00,,SCT120,0.00,VWS V14.01,2013-09-13 06:23:00,
2013-09-13 02:28:00,68.5,65.5,29.85,South,180,0.0,0.0,90,0.00,,SCT120,0.00,VWS V14.01,2013-09-13 06:28:00,
2013-09-13 02:33:00,68.5,65.5,29.85,South,180,0.0,0.0,90,0.00,,SCT120,0.00,VWS V14.01,2013-09-13 06:33:00,
2013-09-13 02:38:00,68.4,65.3,29.85,South,180,0.0,0.0,90,0.00,,SCT120,0.00,VWS V14.01,2013-09-13 06:38:00,
2013-09-13 02:43:00,68.4,65.6,29.85,South,180,0.0,0.0,91,0.00,,BKN110,0.00,VWS V14.01,2013-09-13 06:43:00,
2013-09-13 02:48:00,68.2,65.5,29.85,South,180,0.0,0.0,91,0.00,,BKN110,0.00,VWS V14.01,2013-09-13 06:48:00,
2013-09-13 02:53:00,68.2,65.5,29.85,South,180,0.0,0.0,91,0.00,,BKN110,0.00,VWS V14.01,2013-09-13 06:53:00,
2013-09-13 02:58:00,68.2,65.5,29.85,South,180,0.0,0.0,91,0.00,,BKN110,0.00,VWS V14.01,2013-09-13 06:58:00,
2013-09-13 03:03:00,68.0,65.3,29.85,South,180,0.0,2.7,91,0.00,,OVC110,0.00,VWS V14.01,2013-09-13 07:03:00,
2013-09-13 03:08:00,68.0,65.6,29.85,South,180,0.0,0.0,92,0.00,,OVC110,0.00,VWS V14.01,2013-09-13 07:08:00,
2013-09-13 03:13:00,68.0,65.6,29.85,South,180,0.0,0.0,92,0.00,,OVC110,0.00,VWS V14.01,2013-09-13 07:13:00,
2013-09-13 03:18:00,67.8,65.7,29.85,South,180,0.0,0.0,93,0.00,,OVC110,0.00,VWS V14.01,2013-09-13 07:18:00,
2013-09-13 03:23:00,67.6,65.6,29.85,South,180,0.0,0.0,93,0.00,,OVC110,0.00,VWS V14.01,2013-09-13 07:23:00,
2013-09-13 03:28:00,67.6,65.9,29.85,South,180,0.0,0.0,94,0.00,,OVC110,0.00,VWS V14.01,2013-09-13 07:28:00,
2013-09-13 03:33:00,67.6,65.9,29.85,South,180,0.0,0.0,94,0.00,,OVC110,0.00,VWS V14.01,2013-09-13 07:33:00,
2013-09-13 03:38:00,67.5,65.7,29.85,South,180,2.2,2.2,94,0.00,,OVC110,0.00,VWS V14.01,2013-09-13 07:38:00,
2013-09-13 03:43:00,67.1,65.6,29.85,South,180,0.0,0.0,95,0.00,,BKN120,0.00,VWS V14.01,2013-09-13 07:43:00,
2013-09-13 03:48:00,66.9,65.4,29.85,South,180,0.0,0.0,95,0.00,,BKN120,0.00,VWS V14.01,2013-09-13 07:48:00,
2013-09-13 03:53:00,66.7,65.3,29.85,South,180,0.0,0.0,95,0.00,,BKN120,0.00,VWS V14.01,2013-09-13 07:53:00,
2013-09-13 03:58:00,66.6,65.1,29.85,South,180,0.0,0.0,95,0.00,,BKN120,0.00,VWS V14.01,2013-09-13 07:58:00,
2013-09-13 04:03:00,66.4,65.2,29.85,South,180,0.0,0.0,96,0.00,,SCT120,0.00,VWS V14.01,2013-09-13 08:03:00,
2013-09-13 04:08:00,66.4,65.2,29.85,South,180,0.0,0.0,96,0.00,,SCT120,0.00,VWS V14.01,2013-09-13 08:08:00,
2013-09-13 04:13:00,66.2,65.0,29.85,South,180,0.0,0.0,96,0.00,,SCT120,0.00,VWS V14.01,2013-09-13 08:13:00,
2013-09-13 04:18:00,66.0,64.8,29.85,South,180,0.0,0.0,96,0.00,,SCT120,0.00,VWS V14.01,2013-09-13 08:18:00,
2013-09-13 04:23:00,65.8,65.0,29.85,South,180,0.0,0.0,97,0.00,,,0.00,VWS V14.01,2013-09-13 08:23:00,
2013-09-13 04:28:00,65.7,64.8,29.85,South,180,0.0,0.0,97,0.00,,,0.00,VWS V14.01,2013-09-13 08:28:00,
2013-09-13 04:33:00,65.5,64.6,29.85,South,180,0.0,0.0,97,0.00,,,0.00,VWS V14.01,2013-09-13 08:33:00,
2013-09-13 04:38:00,65.5,64.6,29.85,South,180,2.7,3.1,97,0.00,,,0.00,VWS V14.01,2013-09-13 08:38:00,
2013-09-13 04:43:00,65.3,64.7,29.85,South,180,0.0,0.0,98,0.00,,,0.00,VWS V14.01,2013-09-13 08:43:00,
2013-09-13 04:48:00,65.1,64.5,29.85,South,180,0.0,0.0,98,0.00,,,0.00,VWS V14.01,2013-09-13 08:48:00,
2013-09-13 04:53:00,64.9,64.4,29.85,South,180,0.0,0.0,98,0.00,,,0.00,VWS V14.01,2013-09-13 08:53:00,
2013-09-13 04:58:00,64.8,64.2,29.85,South,180,0.0,0.0,98,0.00,,,0.00,VWS V14.01,2013-09-13 08:58:00,
2013-09-13 05:03:00,64.8,64.2,29.85,South,180,0.0,0.0,98,0.00,,CLR,0.00,VWS V14.01,2013-09-13 09:03:00,
2013-09-13 05:08:00,64.8,64.2,29.85,South,180,0.0,0.0,98,0.00,,CLR,0.00,VWS V14.01,2013-09-13 09:08:00,
2013-09-13 05:13:00,64.4,63.8,29.85,South,180,0.0,0.0,98,0.00,,CLR,0.00,VWS V14.01,2013-09-13 09:13:00,
2013-09-13 05:18:00,64.6,64.0,29.85,South,180,0.0,0.0,98,0.00,,CLR,0.00,VWS V14.01,2013-09-13 09:18:00,
2013-09-13 05:23:00,64.4,63.8,29.85,South,180,0.0,0.0,98,0.00,,CLR,0.00,VWS V14.01,2013-09-13 09:23:00,
2013-09-13 05:28:00,64.4,63.8,29.85,South,180,2.2,2.2,98,0.00,,CLR,0.00,VWS V14.01,2013-09-13 09:28:00,
2013-09-13 05:33:00,64.4,63.8,29.85,South,180,0.0,0.0,98,0.00,,CLR,0.00,VWS V14.01,2013-09-13 09:33:00,
2013-09-13 05:38:00,64.2,63.7,29.85,South,180,0.0,0.0,98,0.00,,CLR,0.00,VWS V14.01,2013-09-13 09:38:00,
2013-09-13 05:43:00,64.0,63.5,29.85,South,180,0.0,0.0,98,0.00,,CLR,0.00,VWS V14.01,2013-09-13 09:43:00,
2013-09-13 05:48:00,63.9,63.3,29.85,South,180,0.0,0.0,98,0.00,,CLR,0.00,VWS V14.01,2013-09-13 09:48:00,
2013-09-13 05:53:00,64.0,63.5,29.85,South,180,0.0,0.0,98,0.00,,CLR,0.00,VWS V14.01,2013-09-13 09:53:00,
2013-09-13 05:58:00,64.0,63.5,29.85,South,180,0.0,0.0,98,0.00,,CLR,0.00,VWS V14.01,2013-09-13 09:58:00,
2013-09-13 06:03:00,63.9,63.3,29.85,South,180,0.0,0.0,98,0.00,,CLR,0.00,VWS V14.01,2013-09-13 10:03:00,
2013-09-13 06:08:00,64.0,63.5,29.85,South,180,0.0,0.0,98,0.00,,CLR,0.00,VWS V14.01,2013-09-13 10:08:00,
2013-09-13 06:13:00,63.9,63.3,29.85,South,180,0.0,0.0,98,0.00,,CLR,0.00,VWS V14.01,2013-09-13 10:13:00,
2013-09-13 06:18:00,63.9,63.3,29.85,South,180,0.0,0.0,98,0.00,,CLR,0.00,VWS V14.01,2013-09-13 10:18:00,
2013-09-13 06:23:00,63.7,63.1,29.85,South,180,0.0,0.0,98,0.00,,CLR,0.00,VWS V14.01,2013-09-13 10:23:00,
2013-09-13 06:28:00,63.7,63.1,29.85,South,180,0.0,0.0,98,0.00,,CLR,0.00,VWS V14.01,2013-09-13 10:28:00,
2013-09-13 06:33:00,64.2,63.7,29.88,South,180,0.0,0.0,98,0.00,,CLR,0.00,VWS V14.01,2013-09-13 10:33:00,
2013-09-13 06:38:00,64.6,63.4,29.88,South,180,0.0,0.0,96,0.00,,CLR,0.00,VWS V14.01,2013-09-13 10:38:00,
2013-09-13 06:43:00,64.8,63.3,29.88,South,180,0.0,0.0,95,0.00,,CLR,0.00,VWS V14.01,2013-09-13 10:43:00,
2013-09-13 06:48:00,64.8,62.7,29.88,South,180,0.0,0.0,93,0.00,,CLR,0.00,VWS V14.01,2013-09-13 10:48:00,
2013-09-13 06:53:00,64.8,62.1,29.88,WSW,248,2.2,4.0,91,0.00,,CLR,0.00,VWS V14.01,2013-09-13 10:53:00,
2013-09-13 06:58:00,64.8,61.8,29.88,WSW,248,0.0,0.0,90,0.00,,CLR,0.00,VWS V14.01,2013-09-13 10:58:00,
2013-09-13 07:03:00,65.5,61.8,29.88,WSW,248,0.0,0.0,88,0.00,,CLR,0.00,VWS V14.01,2013-09-13 11:03:00,
2013-09-13 07:08:00,65.5,60.5,29.88,WSW,248,0.0,0.0,84,0.00,,CLR,0.00,VWS V14.01,2013-09-13 11:08:00,
2013-09-13 07:13:00,65.3,60.0,29.88,WSW,248,0.0,0.0,83,0.00,,CLR,0.00,VWS V14.01,2013-09-13 11:13:00,
2013-09-13 07:18:00,65.3,60.3,29.88,WSW,248,0.0,0.0,84,0.00,,CLR,0.00,VWS V14.01,2013-09-13 11:18:00,
2013-09-13 07:23:00,65.1,60.2,29.88,WSW,248,0.0,0.0,84,0.00,,CLR,0.00,VWS V14.01,2013-09-13 11:23:00,
2013-09-13 07:28:00,64.8,60.2,29.88,WSW,248,0.0,0.0,85,0.00,,CLR,0.00,VWS V14.01,2013-09-13 11:28:00,
2013-09-13 07:33:00,64.8,60.2,29.88,WSW,248,0.0,0.0,85,0.00,,CLR,0.00,VWS V14.01,2013-09-13 11:33:00,
2013-09-13 07:38:00,64.6,60.3,29.88,WSW,248,0.0,0.0,86,0.00,,CLR,0.00,VWS V14.01,2013-09-13 11:38:00,
2013-09-13 07:43:00,64.9,61.0,29.88,WSW,248,0.0,0.0,87,0.00,,CLR,0.00,VWS V14.01,2013-09-13 11:43:00,
2013-09-13 07:48:00,64.6,61.0,29.91,WSW,248,0.0,0.0,88,0.00,,CLR,0.00,VWS V14.01,2013-09-13 11:48:00,
2013-09-13 07:53:00,64.4,61.4,29.91,WSW,248,0.0,0.0,90,0.00,,CLR,0.00,VWS V14.01,2013-09-13 11:53:00,
2013-09-13 07:58:00,64.9,61.9,29.91,WSW,248,0.0,0.0,90,0.00,,CLR,0.00,VWS V14.01,2013-09-13 11:58:00,
2013-09-13 08:03:00,65.1,62.1,29.91,WSW,248,0.0,0.0,90,0.00,,CLR,0.00,VWS V14.01,2013-09-13 12:03:00,
2013-09-13 08:08:00,65.7,62.7,29.91,WSW,248,0.0,0.0,90,0.00,,CLR,0.00,VWS V14.01,2013-09-13 12:08:00,
2013-09-13 08:13:00,65.8,62.5,29.91,WSW,248,0.0,0.0,89,0.00,,CLR,0.00,VWS V14.01,2013-09-13 12:13:00,
2013-09-13 08:19:00,66.0,63.0,29.91,WSW,248,0.0,0.0,90,0.00,,CLR,0.00,VWS V14.01,2013-09-13 12:19:00,
2013-09-13 08:24:00,66.2,63.2,29.91,WSW,248,0.0,0.0,90,0.00,,CLR,0.00,VWS V14.01,2013-09-13 12:24:00,
2013-09-13 08:29:00,66.9,63.9,29.91,WSW,248,0.0,0.0,90,0.00,,CLR,0.00,VWS V14.01,2013-09-13 12:29:00,
2013-09-13 08:34:00,67.3,64.2,29.91,WSW,248,0.0,0.0,90,0.00,,CLR,0.00,VWS V14.01,2013-09-13 12:34:00,
2013-09-13 08:39:00,67.3,63.9,29.91,WSW,248,0.0,0.0,89,0.00,,CLR,0.00,VWS V14.01,2013-09-13 12:39:00,
2013-09-13 08:44:00,67.5,63.8,29.91,WSW,248,0.0,0.0,88,0.00,,CLR,0.00,VWS V14.01,2013-09-13 12:44:00,
2013-09-13 08:49:00,67.8,64.1,29.91,WSW,248,0.0,0.0,88,0.00,,CLR,0.00,VWS V14.01,2013-09-13 12:49:00,
2013-09-13 08:54:00,68.7,64.0,29.91,WSW,248,0.0,0.0,85,0.00,,CLR,0.00,VWS V14.01,2013-09-13 12:54:00,
2013-09-13 08:59:00,68.9,63.2,29.91,WSW,248,0.0,0.0,82,0.00,,CLR,0.00,VWS V14.01,2013-09-13 12:59:00,
2013-09-13 09:04:00,69.8,62.3,29.91,WSW,248,0.0,0.0,77,0.00,,CLR,0.00,VWS V14.01,2013-09-13 13:04:00,
2013-09-13 09:09:00,69.8,61.5,29.91,WSW,248,0.0,0.0,75,0.00,,CLR,0.00,VWS V14.01,2013-09-13 13:09:00,
2013-09-13 09:14:00,70.0,61.3,29.91,WSW,248,0.0,0.0,74,0.00,,CLR,0.00,VWS V14.01,2013-09-13 13:14:00,
2013-09-13 09:19:00,70.2,61.9,29.91,WSW,248,0.0,0.0,75,0.00,,CLR,0.00,VWS V14.01,2013-09-13 13:19:00,
2013-09-13 09:24:00,70.5,61.5,29.91,WSW,248,0.0,0.0,73,0.00,,CLR,0.00,VWS V14.01,2013-09-13 13:24:00,
2013-09-13 09:29:00,71.2,61.0,29.91,WSW,248,2.7,2.7,70,0.00,,CLR,0.00,VWS V14.01,2013-09-13 13:29:00,
2013-09-13 09:34:00,72.1,59.7,29.91,WSW,248,2.2,2.7,65,0.00,,CLR,0.00,VWS V14.01,2013-09-13 13:34:00,
2013-09-13 09:39:00,72.5,58.8,29.91,WSW,248,0.0,2.2,62,0.00,,CLR,0.00,VWS V14.01,2013-09-13 13:39:00,
2013-09-13 09:44:00,72.5,58.3,29.91,WSW,248,2.2,2.7,61,0.00,,CLR,0.00,VWS V14.01,2013-09-13 13:44:00,
2013-09-13 09:49:00,72.7,58.0,29.91,WSW,248,0.0,2.2,60,0.00,,CLR,0.00,VWS V14.01,2013-09-13 13:49:00,
2013-09-13 09:54:00,72.9,58.2,29.91,WSW,248,2.2,2.2,60,0.00,,CLR,0.00,VWS V14.01,2013-09-13 13:54:00,
2013-09-13 09:59:00,73.4,57.3,29.91,WSW,248,2.2,2.2,57,0.00,,CLR,0.00,VWS V14.01,2013-09-13 13:59:00,
2013-09-13 10:04:00,73.6,57.9,29.91,WSW,248,0.0,0.0,58,0.00,,CLR,0.00,VWS V14.01,2013-09-13 14:04:00,
2013-09-13 10:09:00,73.9,56.8,29.91,WSW,248,2.2,2.2,55,0.00,,CLR,0.00,VWS V14.01,2013-09-13 14:09:00,
2013-09-13 10:14:00,74.3,56.1,29.91,WSW,248,0.0,2.2,53,0.00,,CLR,0.00,VWS V14.01,2013-09-13 14:14:00,
2013-09-13 10:19:00,74.7,56.4,29.91,WSW,248,0.0,0.0,53,0.00,,CLR,0.00,VWS V14.01,2013-09-13 14:19:00,
2013-09-13 10:24:00,74.8,53.8,29.91,WSW,248,0.0,2.2,48,0.00,,CLR,0.00,VWS V14.01,2013-09-13 14:24:00,
2013-09-13 10:29:00,75.0,54.0,29.91,WSW,248,0.0,0.0,48,0.00,,CLR,0.00,VWS V14.01,2013-09-13 14:29:00,
2013-09-13 10:34:00,75.2,53.6,29.91,WSW,248,2.2,2.2,47,0.00,,CLR,0.00,VWS V14.01,2013-09-13 14:34:00,
2013-09-13 10:39:00,75.2,53.6,29.91,WSW,248,0.0,2.2,47,0.00,,CLR,0.00,VWS V14.01,2013-09-13 14:39:00,
2013-09-13 10:44:00,75.6,51.5,29.91,WSW,248,0.0,2.2,43,0.00,,SCT060,0.00,VWS V14.01,2013-09-13 14:44:00,
2013-09-13 10:49:00,75.7,52.3,29.91,WSW,248,0.0,2.2,44,0.00,,SCT060,0.00,VWS V14.01,2013-09-13 14:49:00,
2013-09-13 10:54:00,76.1,52.6,29.91,WSW,248,2.7,2.7,44,0.00,,SCT060,0.00,VWS V14.01,2013-09-13 14:54:00,
2013-09-13 10:59:00,76.6,51.8,29.91,WSW,248,0.0,0.0,42,0.00,,SCT060,0.00,VWS V14.01,2013-09-13 14:59:00,
2013-09-13 11:04:00,77.4,52.5,29.91,WSW,248,2.2,2.7,42,0.00,,SCT060,0.00,VWS V14.01,2013-09-13 15:04:00,
2013-09-13 11:09:00,77.9,51.7,29.91,WSW,248,2.2,2.2,40,0.00,,SCT060,0.00,VWS V14.01,2013-09-13 15:09:00,
2013-09-13 11:14:00,78.3,52.7,29.91,WSW,248,3.1,3.1,41,0.00,,SCT060,0.00,VWS V14.01,2013-09-13 15:14:00,
2013-09-13 11:19:00,78.4,52.8,29.91,WSW,248,2.7,2.7,41,0.00,,SCT060,0.00,VWS V14.01,2013-09-13 15:19:00,
2013-09-13 11:25:00,79.0,49.8,29.91,WSW,248,0.0,0.0,36,0.00,,,0.00,VWS V14.01,2013-09-13 15:25:00,
2013-09-13 11:30:00,79.2,49.2,29.91,WSW,248,0.0,4.0,35,0.00,,,0.00,VWS V14.01,2013-09-13 15:30:00,
2013-09-13 11:35:00,79.7,49.7,29.91,WSW,248,3.6,4.0,35,0.00,,,0.00,VWS V14.01,2013-09-13 15:35:00,
2013-09-13 11:40:00,79.7,50.4,29.91,WSW,248,0.0,0.0,36,0.00,,,0.00,VWS V14.01,2013-09-13 15:40:00,
2013-09-13 11:45:00,80.6,48.0,29.91,WSW,248,0.0,2.7,32,0.00,,SCT070,0.00,VWS V14.01,2013-09-13 15:45:00,
2013-09-13 11:51:00,79.9,50.6,29.91,WSW,248,0.0,0.0,36,0.00,,SCT070,0.00,VWS V14.01,2013-09-13 15:51:00,
2013-09-13 11:56:00,80.4,47.9,29.91,WSW,248,2.2,4.0,32,0.00,,SCT070,0.00,VWS V14.01,2013-09-13 15:56:00,
2013-09-13 12:01:00,81.7,52.2,29.91,WSW,248,2.2,4.0,36,0.00,,SCT070,0.00,VWS V14.01,2013-09-13 16:01:00,
2013-09-13 12:06:00,81.5,49.7,29.91,WSW,248,0.0,2.7,33,0.00,,SCT070,0.00,VWS V14.01,2013-09-13 16:06:00,
2013-09-13 12:12:00,83.3,48.7,29.91,WSW,248,2.7,2.7,30,0.00,,SCT070,0.00,VWS V14.01,2013-09-13 16:12:00,
2013-09-13 12:17:00,82.2,48.6,29.91,WSW,248,2.7,2.7,31,0.00,,SCT070,0.00,VWS V14.01,2013-09-13 16:17:00,
2013-09-13 12:22:00,80.6,48.0,29.91,WSW,248,0.0,3.1,32,0.00,,BKN055,0.00,VWS V14.01,2013-09-13 16:22:00,
2013-09-13 12:27:00,81.7,49.0,29.91,WSW,248,0.0,2.2,32,0.00,,BKN055,0.00,VWS V14.01,2013-09-13 16:27:00,
2013-09-13 12:32:00,83.3,48.7,29.91,WSW,248,0.0,2.7,30,0.00,,BKN055,0.00,VWS V14.01,2013-09-13 16:32:00,
2013-09-13 12:37:00,84.2,49.4,29.91,WSW,248,0.0,3.1,30,0.00,,BKN055,0.00,VWS V14.01,2013-09-13 16:37:00,
2013-09-13 12:42:00,82.2,48.6,29.91,WSW,248,2.2,2.2,31,0.00,,BKN065,0.00,VWS V14.01,2013-09-13 16:42:00,
2013-09-13 12:52:00,83.8,45.3,29.91,WSW,248,2.2,2.2,26,0.00,,,0.00,VWS V14.01,2013-09-13 16:52:00,
2013-09-13 12:57:00,83.1,44.7,29.91,WSW,248,0.0,0.0,26,0.00,,,0.00,VWS V14.01,2013-09-13 16:57:00,
2013-09-13 13:02:00,84.0,48.4,29.91,WSW,248,2.2,2.2,29,0.00,,OVC065,0.00,VWS V14.01,2013-09-13 17:02:00,
2013-09-13 13:07:00,84.6,48.8,29.91,WSW,248,2.2,2.2,29,0.00,,OVC065,0.00,VWS V14.01,2013-09-13 17:07:00,
2013-09-13 13:12:00,84.2,47.6,29.91,WSW,248,0.0,2.7,28,0.00,,OVC065,0.00,VWS V14.01,2013-09-13 17:12:00,
2013-09-13 13:17:00,83.8,43.2,29.91,WSW,248,3.1,3.1,24,0.00,,OVC065,0.00,VWS V14.01,2013-09-13 17:17:00,
2013-09-13 13:22:00,84.0,41.1,29.91,WSW,248,0.0,3.6,22,0.00,,BKN055,0.00,VWS V14.01,2013-09-13 17:22:00,
2013-09-13 13:27:00,84.9,40.7,29.91,SSW,202,2.7,2.7,21,0.00,,BKN055,0.00,VWS V14.01,2013-09-13 17:27:00,
2013-09-13 13:32:00,85.5,41.1,29.91,SSW,202,3.1,3.1,21,0.00,,BKN055,0.00,VWS V14.01,2013-09-13 17:32:00,
2013-09-13 13:37:00,85.1,39.6,29.88,SSW,202,0.0,2.2,20,0.00,,BKN055,0.00,VWS V14.01,2013-09-13 17:37:00,
2013-09-13 13:42:00,86.0,40.3,29.88,SSW,202,0.0,0.0,20,0.00,,BKN055,0.00,VWS V14.01,2013-09-13 17:42:00,
2013-09-13 13:47:00,85.8,40.2,29.88,ESE,112,2.2,3.1,20,0.00,,BKN055,0.00,VWS V14.01,2013-09-13 17:47:00,
2013-09-13 13:52:00,84.7,41.7,29.88,ESE,112,0.0,3.1,22,0.00,,BKN055,0.00,VWS V14.01,2013-09-13 17:52:00,
2013-09-13 13:57:00,84.6,41.6,29.88,ESE,112,3.1,3.1,22,0.00,,BKN055,0.00,VWS V14.01,2013-09-13 17:57:00,
2013-09-13 14:02:00,84.9,39.4,29.88,ESE,112,0.0,2.2,20,0.00,,OVC070,0.00,VWS V14.01,2013-09-13 18:02:00,
2013-09-13 14:07:00,85.5,39.9,29.88,NNE,22,2.7,4.0,20,0.00,,OVC070,0.00,VWS V14.01,2013-09-13 18:07:00,
2013-09-13 14:12:00,84.9,38.1,29.88,NNE,22,4.0,4.0,19,0.00,,OVC070,0.00,VWS V14.01,2013-09-13 18:12:00,
2013-09-13 14:17:00,85.6,38.7,29.88,SSW,202,4.0,4.0,19,0.00,,OVC070,0.00,VWS V14.01,2013-09-13 18:17:00,
2013-09-13 14:22:00,84.9,39.4,29.88,SSW,202,2.2,2.7,20,0.00,,SCT070,0.00,VWS V14.01,2013-09-13 18:22:00,
2013-09-13 14:27:00,85.5,39.9,29.88,ENE,68,2.7,2.7,20,0.00,,SCT070,0.00,VWS V14.01,2013-09-13 18:27:00,
2013-09-13 14:32:00,85.1,38.2,29.88,ENE,68,0.0,2.7,19,0.00,,SCT070,0.00,VWS V14.01,2013-09-13 18:32:00,
2013-09-13 14:37:00,86.2,39.1,29.88,ENE,68,3.6,3.6,19,0.00,,SCT070,0.00,VWS V14.01,2013-09-13 18:37:00,
2013-09-13 14:42:00,86.0,39.0,29.88,ENE,68,2.2,2.2,19,0.00,,CLR,0.00,VWS V14.01,2013-09-13 18:42:00,
2013-09-13 14:47:00,85.6,40.0,29.88,ENE,68,0.0,0.0,20,0.00,,CLR,0.00,VWS V14.01,2013-09-13 18:47:00,
2013-09-13 14:52:00,84.9,39.4,29.88,ENE,68,2.7,4.0,20,0.00,,CLR,0.00,VWS V14.01,2013-09-13 18:52:00,
2013-09-13 14:57:00,86.0,39.0,29.88,ENE,68,0.0,0.0,19,0.00,,CLR,0.00,VWS V14.01,2013-09-13 18:57:00,
2013-09-13 15:02:00,85.3,38.4,29.88,ENE,68,0.0,0.0,19,0.00,,SCT090,0.00,VWS V14.01,2013-09-13 19:02:00,
2013-09-13 15:07:00,85.8,38.8,29.85,ENE,68,0.0,3.1,19,0.00,,SCT090,0.00,VWS V14.01,2013-09-13 19:07:00,
2013-09-13 15:12:00,85.6,40.0,29.85,ENE,68,2.2,3.6,20,0.00,,SCT090,0.00,VWS V14.01,2013-09-13 19:12:00,
2013-09-13 15:17:00,85.3,38.4,29.85,ENE,68,0.0,0.0,19,0.00,,SCT090,0.00,VWS V14.01,2013-09-13 19:17:00,
2013-09-13 15:22:00,85.5,38.5,29.88,ENE,68,3.1,3.1,19,0.00,,SCT065,0.00,VWS V14.01,2013-09-13 19:22:00,
2013-09-13 15:27:00,85.1,38.2,29.88,ENE,68,3.1,3.1,19,0.00,,SCT065,0.00,VWS V14.01,2013-09-13 19:27:00,
2013-09-13 15:32:00,84.0,38.7,29.88,ENE,68,2.7,2.7,20,0.00,,SCT065,0.00,VWS V14.01,2013-09-13 19:32:00,
2013-09-13 15:37:00,82.9,37.8,29.85,ENE,68,2.7,2.7,20,0.00,,SCT065,0.00,VWS V14.01,2013-09-13 19:37:00,
2013-09-13 15:42:00,82.4,37.3,29.85,ENE,68,0.0,2.7,20,0.00,,SCT065,0.00,VWS V14.01,2013-09-13 19:42:00,
2013-09-13 15:47:00,82.2,37.2,29.85,ENE,68,0.0,2.7,20,0.00,,SCT065,0.00,VWS V14.01,2013-09-13 19:47:00,
2013-09-13 15:52:00,81.7,36.8,29.88,ENE,68,0.0,4.5,20,0.00,,SCT065,0.00,VWS V14.01,2013-09-13 19:52:00,
2013-09-13 15:57:00,81.0,36.2,29.88,ENE,68,2.2,4.0,20,0.00,,SCT065,0.00,VWS V14.01,2013-09-13 19:57:00,
2013-09-13 16:02:00,80.8,37.2,29.88,ENE,68,3.6,3.6,21,0.00,,SCT070,0.00,VWS V14.01,2013-09-13 20:02:00,
2013-09-13 16:07:00,80.8,36.0,29.88,ENE,68,2.2,2.2,20,0.00,,SCT070,0.00,VWS V14.01,2013-09-13 20:07:00,
2013-09-13 16:12:00,81.0,37.4,29.88,ENE,68,3.1,4.0,21,0.00,,SCT070,0.00,VWS V14.01,2013-09-13 20:12:00,
2013-09-13 16:17:00,80.6,37.1,29.88,ENE,68,0.0,3.6,21,0.00,,SCT070,0.00,VWS V14.01,2013-09-13 20:17:00,
2013-09-13 16:22:00,80.6,37.1,29.85,ENE,68,2.2,3.1,21,0.00,,SCT070,0.00,VWS V14.01,2013-09-13 20:22:00,
2013-09-13 16:27:00,80.4,37.0,29.85,ENE,68,0.0,0.0,21,0.00,,SCT070,0.00,VWS V14.01,2013-09-13 20:27:00,
2013-09-13 16:32:00,80.2,36.8,29.85,ENE,68,0.0,3.6,21,0.00,,SCT070,0.00,VWS V14.01,2013-09-13 20:32:00,
2013-09-13 16:37:00,79.9,36.5,29.88,ENE,68,0.0,2.7,21,0.00,,SCT070,0.00,VWS V14.01,2013-09-13 20:37:00,
2013-09-13 16:42:00,79.5,36.2,29.88,ENE,68,2.7,2.7,21,0.00,,CLR,0.00,VWS V14.01,2013-09-13 20:42:00,
2013-09-13 16:47:00,79.2,35.9,29.88,ENE,68,3.6,3.6,21,0.00,,CLR,0.00,VWS V14.01,2013-09-13 20:47:00,
2013-09-13 16:52:00,79.0,35.8,29.88,ENE,68,3.1,4.0,21,0.00,,CLR,0.00,VWS V14.01,2013-09-13 20:52:00,
2013-09-13 16:57:00,78.8,35.6,29.88,ENE,68,4.0,4.0,21,0.00,,CLR,0.00,VWS V14.01,2013-09-13 20:57:00,
2013-09-13 17:02:00,78.4,35.3,29.88,ENE,68,2.2,2.2,21,0.00,,CLR,0.00,VWS V14.01,2013-09-13 21:02:00,
2013-09-13 17:07:00,78.4,35.3,29.88,ENE,68,0.0,3.1,21,0.00,,CLR,0.00,VWS V14.01,2013-09-13 21:07:00,
2013-09-13 17:12:00,78.3,37.5,29.88,ENE,68,0.0,0.0,23,0.00,,CLR,0.00,VWS V14.01,2013-09-13 21:12:00,
2013-09-13 17:17:00,78.1,35.0,29.88,ENE,68,2.2,2.7,21,0.00,,CLR,0.00,VWS V14.01,2013-09-13 21:17:00,
2013-09-13 17:22:00,77.9,34.9,29.88,ENE,68,2.7,3.6,21,0.00,,CLR,0.00,VWS V14.01,2013-09-13 21:22:00,
2013-09-13 17:27:00,77.7,35.9,29.88,NNW,338,2.2,2.2,22,0.00,,CLR,0.00,VWS V14.01,2013-09-13 21:27:00,
2013-09-13 17:32:00,77.4,37.8,29.88,West,270,6.3,6.3,24,0.00,,CLR,0.00,VWS V14.01,2013-09-13 21:32:00,
2013-09-13 17:37:00,77.2,35.4,29.88,ENE,68,2.2,3.1,22,0.00,,CLR,0.00,VWS V14.01,2013-09-13 21:37:00,
2013-09-13 17:42:00,77.0,36.4,29.88,ENE,68,0.0,3.6,23,0.00,,CLR,0.00,VWS V14.01,2013-09-13 21:42:00,
2013-09-13 17:47:00,76.8,37.3,29.88,NW,315,2.2,2.7,24,0.00,,CLR,0.00,VWS V14.01,2013-09-13 21:47:00,
2013-09-13 17:52:00,76.6,38.2,29.88,NW,315,2.7,2.7,25,0.00,,CLR,0.00,VWS V14.01,2013-09-13 21:52:00,
2013-09-13 17:57:00,76.5,37.0,29.88,NW,315,0.0,2.7,24,0.00,,CLR,0.00,VWS V14.01,2013-09-13 21:57:00,
2013-09-13 18:02:00,76.3,37.9,29.88,NW,315,0.0,3.1,25,0.00,,SCT070,0.00,VWS V14.01,2013-09-13 22:02:00,
2013-09-13 18:07:00,75.9,38.6,29.88,NW,315,3.6,3.6,26,0.00,,SCT070,0.00,VWS V14.01,2013-09-13 22:07:00,
2013-09-13 18:12:00,75.6,36.3,29.88,NW,315,0.0,2.2,24,0.00,,SCT070,0.00,VWS V14.01,2013-09-13 22:12:00,
2013-09-13 18:17:00,75.0,36.8,29.88,NW,315,2.2,2.7,25,0.00,,SCT070,0.00,VWS V14.01,2013-09-13 22:17:00,
2013-09-13 18:22:00,74.5,38.3,29.88,NW,315,0.0,0.0,27,0.00,,BKN070,0.00,VWS V14.01,2013-09-13 22:22:00,
2013-09-13 18:28:00,73.9,38.8,29.88,NW,315,2.2,3.1,28,0.00,,BKN070,0.00,VWS V14.01,2013-09-13 22:28:00,
2013-09-13 18:33:00,73.8,38.7,29.88,NW,315,2.2,2.2,28,0.00,,BKN070,0.00,VWS V14.01,2013-09-13 22:33:00,
2013-09-13 18:38:00,73.2,40.8,29.88,NW,315,0.0,2.2,31,0.00,,BKN070,0.00,VWS V14.01,2013-09-13 22:38:00,
2013-09-13 18:43:00,73.0,40.6,29.88,NW,315,0.0,0.0,31,0.00,,BKN070,0.00,VWS V14.01,2013-09-13 22:43:00,
2013-09-13 18:48:00,72.7,40.3,29.88,NW,315,3.1,3.1,31,0.00,,BKN070,0.00,VWS V14.01,2013-09-13 22:48:00,
2013-09-13 18:53:00,72.5,38.5,29.88,NW,315,0.0,0.0,29,0.00,,BKN070,0.00,VWS V14.01,2013-09-13 22:53:00,
2013-09-13 18:58:00,72.3,40.0,29.88,NW,315,2.2,2.2,31,0.00,,BKN070,0.00,VWS V14.01,2013-09-13 22:58:00,
2013-09-13 19:03:00,72.0,40.5,29.88,NW,315,0.0,0.0,32,0.00,,OVC070,0.00,VWS V14.01,2013-09-13 23:03:00,
2013-09-13 19:08:00,71.6,41.0,29.91,NW,315,0.0,2.2,33,0.00,,OVC070,0.00,VWS V14.01,2013-09-13 23:08:00,
2013-09-13 19:13:00,71.2,40.7,29.91,NW,315,0.0,0.0,33,0.00,,OVC070,0.00,VWS V14.01,2013-09-13 23:13:00,
2013-09-13 19:18:00,70.9,41.1,29.91,NW,315,0.0,2.2,34,0.00,,OVC070,0.00,VWS V14.01,2013-09-13 23:18:00,
2013-09-13 19:23:00,70.5,39.3,29.91,NW,315,2.2,2.7,32,0.00,,OVC070,0.00,VWS V14.01,2013-09-13 23:23:00,
2013-09-13 19:28:00,70.2,39.7,29.91,NW,315,0.0,0.0,33,0.00,,OVC070,0.00,VWS V14.01,2013-09-13 23:28:00,
2013-09-13 19:33:00,69.8,40.2,29.91,NW,315,0.0,0.0,34,0.00,,OVC070,0.00,VWS V14.01,2013-09-13 23:33:00,
2013-09-13 19:38:00,69.3,40.5,29.91,NW,315,0.0,0.0,35,0.00,,OVC070,0.00,VWS V14.01,2013-09-13 23:38:00,
2013-09-13 19:43:00,68.4,39.7,29.91,NW,315,0.0,0.0,35,0.00,,SCT070,0.00,VWS V14.01,2013-09-13 23:43:00,
2013-09-13 19:48:00,68.2,39.5,29.91,NW,315,0.0,0.0,35,0.00,,SCT070,0.00,VWS V14.01,2013-09-13 23:48:00,
2013-09-13 19:53:00,67.6,40.5,29.91,NW,315,0.0,0.0,37,0.00,,SCT070,0.00,VWS V14.01,2013-09-13 23:53:00,
2013-09-13 19:58:00,66.9,39.8,29.91,NW,315,0.0,0.0,37,0.00,,SCT070,0.00,VWS V14.01,2013-09-13 23:58:00,
2013-09-13 20:03:00,66.6,40.2,29.91,NW,315,0.0,0.0,38,0.00,,CLR,0.00,VWS V14.01,2013-09-14 00:03:00,
2013-09-13 20:08:00,66.0,42.3,29.91,NW,315,0.0,0.0,42,0.00,,CLR,0.00,VWS V14.01,2013-09-14 00:08:00,
2013-09-13 20:13:00,65.7,42.6,29.91,NW,315,0.0,0.0,43,0.00,,CLR,0.00,VWS V14.01,2013-09-14 00:13:00,
2013-09-13 20:18:00,65.3,42.8,29.91,NW,315,0.0,0.0,44,0.00,,CLR,0.00,VWS V14.01,2013-09-14 00:18:00,
2013-09-13 20:23:00,64.8,43.0,29.91,NW,315,0.0,0.0,45,0.00,,CLR,0.00,VWS V14.01,2013-09-14 00:23:00,
2013-09-13 20:28:00,64.6,43.4,29.91,NW,315,0.0,0.0,46,0.00,,CLR,0.00,VWS V14.01,2013-09-14 00:28:00,
2013-09-13 20:33:00,64.2,43.6,29.91,NW,315,0.0,0.0,47,0.00,,CLR,0.00,VWS V14.01,2013-09-14 00:33:00,
2013-09-13 20:38:00,64.2,43.0,29.94,NW,315,0.0,0.0,46,0.00,,CLR,0.00,VWS V14.01,2013-09-14 00:38:00,
2013-09-13 20:43:00,63.9,42.7,29.94,NW,315,0.0,0.0,46,0.00,,CLR,0.00,VWS V14.01,2013-09-14 00:43:00,
2013-09-13 20:48:00,63.5,43.5,29.94,NW,315,0.0,0.0,48,0.00,,CLR,0.00,VWS V14.01,2013-09-14 00:48:00,
2013-09-13 20:53:00,63.1,44.2,29.94,NW,315,0.0,0.0,50,0.00,,CLR,0.00,VWS V14.01,2013-09-14 00:53:00,
2013-09-13 20:58:00,63.0,43.5,29.94,NW,315,0.0,0.0,49,0.00,,CLR,0.00,VWS V14.01,2013-09-14 00:58:00,
2013-09-13 21:03:00,62.8,44.9,29.94,NW,315,0.0,0.0,52,0.00,,CLR,0.00,VWS V14.01,2013-09-14 01:03:00,
2013-09-13 21:08:00,62.2,44.9,29.94,NW,315,0.0,0.0,53,0.00,,CLR,0.00,VWS V14.01,2013-09-14 01:08:00,
2013-09-13 21:13:00,62.2,43.4,29.94,NW,315,0.0,0.0,50,0.00,,CLR,0.00,VWS V14.01,2013-09-14 01:13:00,
2013-09-13 21:18:00,62.1,43.2,29.94,NW,315,0.0,0.0,50,0.00,,CLR,0.00,VWS V14.01,2013-09-14 01:18:00,
2013-09-13 21:23:00,61.9,44.6,29.94,NW,315,0.0,0.0,53,0.00,,CLR,0.00,VWS V14.01,2013-09-14 01:23:00,
2013-09-13 21:28:00,61.9,45.1,29.94,NW,315,0.0,0.0,54,0.00,,CLR,0.00,VWS V14.01,2013-09-14 01:28:00,
2013-09-13 21:33:00,61.9,46.5,29.94,NW,315,0.0,0.0,57,0.00,,CLR,0.00,VWS V14.01,2013-09-14 01:33:00,
2013-09-13 21:38:00,61.9,46.5,29.94,NW,315,0.0,0.0,57,0.00,,CLR,0.00,VWS V14.01,2013-09-14 01:38:00,
2013-09-13 21:44:00,61.9,44.6,29.94,NW,315,0.0,0.0,53,0.00,,CLR,0.00,VWS V14.01,2013-09-14 01:44:00,
2013-09-13 21:49:00,61.7,43.4,29.97,NW,315,0.0,0.0,51,0.00,,CLR,0.00,VWS V14.01,2013-09-14 01:49:00,
2013-09-13 21:54:00,61.7,42.9,29.97,NW,315,0.0,0.0,50,0.00,,CLR,0.00,VWS V14.01,2013-09-14 01:54:00,
2013-09-13 21:59:00,61.7,41.8,29.97,NW,315,0.0,0.0,48,0.00,,CLR,0.00,VWS V14.01,2013-09-14 01:59:00,
2013-09-13 22:04:00,61.7,41.3,29.97,NW,315,0.0,0.0,47,0.00,,CLR,0.00,VWS V14.01,2013-09-14 02:04:00,
2013-09-13 22:09:00,61.5,43.2,29.97,NW,315,0.0,0.0,51,0.00,,CLR,0.00,VWS V14.01,2013-09-14 02:09:00,
2013-09-13 22:14:00,61.3,45.0,29.97,NW,315,0.0,0.0,55,0.00,,CLR,0.00,VWS V14.01,2013-09-14 02:14:00,
2013-09-13 22:19:00,61.3,45.0,29.97,NW,315,0.0,0.0,55,0.00,,CLR,0.00,VWS V14.01,2013-09-14 02:19:00,
2013-09-13 22:24:00,61.0,44.7,29.97,NW,315,0.0,0.0,55,0.00,,CLR,0.00,VWS V14.01,2013-09-14 02:24:00,
2013-09-13 22:29:00,60.8,44.5,29.97,NW,315,0.0,0.0,55,0.00,,CLR,0.00,VWS V14.01,2013-09-14 02:29:00,
2013-09-13 22:34:00,60.8,45.0,29.97,NW,315,0.0,0.0,56,0.00,,CLR,0.00,VWS V14.01,2013-09-14 02:34:00,
2013-09-13 22:39:00,60.6,44.4,29.97,NW,315,0.0,0.0,55,0.00,,CLR,0.00,VWS V14.01,2013-09-14 02:39:00,
2013-09-13 22:44:00,60.6,43.9,29.97,NW,315,0.0,0.0,54,0.00,,CLR,0.00,VWS V14.01,2013-09-14 02:44:00,
2013-09-13 22:49:00,60.6,43.4,29.97,NW,315,0.0,0.0,53,0.00,,CLR,0.00,VWS V14.01,2013-09-14 02:49:00,
2013-09-13 22:55:00,60.8,44.5,29.97,NW,315,0.0,0.0,55,0.00,,CLR,0.00,VWS V14.01,2013-09-14 02:55:00,
2013-09-13 23:00:00,60.4,42.2,29.97,NW,315,0.0,0.0,51,0.00,,CLR,0.00,VWS V14.01,2013-09-14 03:00:00,
2013-09-13 23:05:00,60.6,41.9,29.97,NW,315,0.0,0.0,50,0.00,,SCT070,0.00,VWS V14.01,2013-09-14 03:05:00,
2013-09-13 23:10:00,60.4,43.2,29.97,NW,315,0.0,0.0,53,0.00,,SCT070,0.00,VWS V14.01,2013-09-14 03:10:00,
2013-09-13 23:15:00,60.3,42.1,29.97,NW,315,0.0,0.0,51,0.00,,SCT070,0.00,VWS V14.01,2013-09-14 03:15:00,
2013-09-13 23:20:00,60.1,41.9,29.97,NW,315,0.0,0.0,51,0.00,,SCT070,0.00,VWS V14.01,2013-09-14 03:20:00,
2013-09-13 23:25:00,59.7,41.6,29.97,NW,315,0.0,0.0,51,0.00,,SCT070,0.00,VWS V14.01,2013-09-14 03:25:00,
2013-09-13 23:30:00,59.7,42.1,29.97,NW,315,0.0,0.0,52,0.00,,SCT070,0.00,VWS V14.01,2013-09-14 03:30:00,
2013-09-13 23:35:00,59.4,42.2,29.97,NW,315,0.0,0.0,53,0.00,,SCT070,0.00,VWS V14.01,2013-09-14 03:35:00,
2013-09-13 23:40:00,59.4,42.2,29.97,NW,315,0.0,0.0,53,0.00,,SCT070,0.00,VWS V14.01,2013-09-14 03:40:00,
2013-09-13 23:45:00,59.2,43.0,29.97,NW,315,0.0,0.0,55,0.00,,SCT070,0.00,VWS V14.01,2013-09-14 03:45:00,
2013-09-13 23:50:00,59.2,42.6,29.97,NW,315,0.0,0.0,54,0.00,,SCT070,0.00,VWS V14.01,2013-09-14 03:50:00,
2013-09-13 23:55:00,59.2,42.6,29.97,NW,315,0.0,0.0,54,0.00,,SCT070,0.00,VWS V14.01,2013-09-14 03:55:00,